ZSPD METAR and TAF | Updated Today

ZSPD METAR

Shanghai Pudong International Airport

Observation time: 11 min. ago

ZSPD 251830Z 00000MPS CAVOK 18/17 Q1008 NOSIG

Need help? Read our tutorial on how to read METARs or read the parsed version below.

Shanghai Pudong International Airport (ZSPD) METAR

  • Weather conditions on Wed, 25 May 2022 18:30:00 +0000 (11 min. ago):
  • Present conditions: Dry
  • Clouds: Clear skies
  • Visibility: Greater than 10 km
  • Wind: Calm
  • Temperature: 18 celsius
  • Dew point: 17 celsius
  • Pressure: 1008 millibars
  • Remarks: None


Useful to know...

ZSPD TAF

Shanghai Pudong International Airport

TAF ZSPD 251510Z 2518/2618 05004MPS 6000 BKN020 TX25/2606Z TN17/2521Z BECMG 2608/2610 12004MPS
Observation time: 3:31 hr. ago
Need help? Read our tutorial on how to read TAFs or read the parsed version below.

Parsed version of TAF for Shanghai Pudong International Airport (ZSPD)

  • From 25 May at 18:00 UTC, to day 26 of the month at 18:00 UTC
  • Clouds: Broken sky at 610 meters
  • Visibility: 6000 meters
  • Wind: 50 degrees at 4
  • Expected to arise soon, from 26 May at 08:00 UTC, to day 26 of the month at 10:00 UTC
  • Wind: 120 degrees at 4